sensor_id;sensor_type;location;lat;lon;timestamp;P1;durP1;ratioP1;P2;durP2;ratioP2
15878;SDS011;61999;51.514;14.614;2022-10-31T00:01:16;12.53;;;11.07;;
15878;SDS011;61999;51.514;14.614;2022-10-31T00:03:46;11.77;;;10.53;;
15878;SDS011;61999;51.514;14.614;2022-10-31T00:06:15;13.60;;;11.57;;
15878;SDS011;61999;51.514;14.614;2022-10-31T00:08:44;11.63;;;10.47;;
15878;SDS011;61999;51.514;14.614;2022-10-31T00:11:13;13.97;;;10.73;;
15878;SDS011;61999;51.514;14.614;2022-10-31T00:13:41;14.03;;;10.93;;
15878;SDS011;61999;51.514;14.614;2022-10-31T00:16:16;13.40;;;9.73;;
15878;SDS011;61999;51.514;14.614;2022-10-31T00:18:47;12.90;;;9.63;;
15878;SDS011;61999;51.514;14.614;2022-10-31T00:21:16;12.73;;;9.40;;
15878;SDS011;61999;51.514;14.614;2022-10-31T00:23:45;10.87;;;9.57;;
15878;SDS011;61999;51.514;14.614;2022-10-31T00:26:13;11.77;;;10.17;;
15878;SDS011;61999;51.514;14.614;2022-10-31T00:28:42;12.50;;;9.63;;
15878;SDS011;61999;51.514;14.614;2022-10-31T00:31:10;10.97;;;9.40;;
15878;SDS011;61999;51.514;14.614;2022-10-31T00:33:41;15.70;;;9.97;;
15878;SDS011;61999;51.514;14.614;2022-10-31T00:36:11;10.63;;;9.37;;
15878;SDS011;61999;51.514;14.614;2022-10-31T00:38:41;12.67;;;9.27;;
15878;SDS011;61999;51.514;14.614;2022-10-31T00:41:11;10.00;;;8.77;;
15878;SDS011;61999;51.514;14.614;2022-10-31T00:43:40;13.77;;;9.73;;
15878;SDS011;61999;51.514;14.614;2022-10-31T00:46:08;11.23;;;9.97;;
15878;SDS011;61999;51.514;14.614;2022-10-31T00:48:36;13.73;;;9.93;;
15878;SDS011;61999;51.514;14.614;2022-10-31T00:51:06;12.27;;;10.07;;
15878;SDS011;61999;51.514;14.614;2022-10-31T00:53:34;11.97;;;10.20;;
15878;SDS011;61999;51.514;14.614;2022-10-31T00:56:02;13.67;;;10.27;;
15878;SDS011;61999;51.514;14.614;2022-10-31T00:58:32;14.07;;;10.37;;
15878;SDS011;61999;51.514;14.614;2022-10-31T01:00:59;14.80;;;10.80;;
15878;SDS011;61999;51.514;14.614;2022-10-31T01:03:29;16.77;;;10.97;;
15878;SDS011;61999;51.514;14.614;2022-10-31T01:05:59;14.37;;;11.07;;
15878;SDS011;61999;51.514;14.614;2022-10-31T01:08:31;14.13;;;11.27;;
15878;SDS011;61999;51.514;14.614;2022-10-31T01:11:03;12.57;;;10.70;;
15878;SDS011;61999;51.514;14.614;2022-10-31T01:13:35;12.00;;;10.70;;
15878;SDS011;61999;51.514;14.614;2022-10-31T01:16:03;14.97;;;11.23;;
15878;SDS011;61999;51.514;14.614;2022-10-31T01:18:34;16.23;;;10.43;;
15878;SDS011;61999;51.514;14.614;2022-10-31T01:21:03;13.20;;;11.03;;
15878;SDS011;61999;51.514;14.614;2022-10-31T01:23:35;15.97;;;10.97;;
15878;SDS011;61999;51.514;14.614;2022-10-31T01:26:05;12.67;;;10.67;;
15878;SDS011;61999;51.514;14.614;2022-10-31T01:28:36;15.57;;;11.10;;
15878;SDS011;61999;51.514;14.614;2022-10-31T01:31:10;13.57;;;10.73;;
15878;SDS011;61999;51.514;14.614;2022-10-31T01:33:38;14.37;;;12.13;;
15878;SDS011;61999;51.514;14.614;2022-10-31T01:36:13;14.97;;;10.63;;
15878;SDS011;61999;51.514;14.614;2022-10-31T01:38:46;13.53;;;10.70;;
15878;SDS011;61999;51.514;14.614;2022-10-31T01:41:17;13.53;;;10.43;;
15878;SDS011;61999;51.514;14.614;2022-10-31T01:43:49;13.77;;;11.00;;
15878;SDS011;61999;51.514;14.614;2022-10-31T01:46:20;16.13;;;11.73;;
15878;SDS011;61999;51.514;14.614;2022-10-31T01:48:52;14.97;;;9.77;;
15878;SDS011;61999;51.514;14.614;2022-10-31T01:51:25;14.77;;;11.03;;
15878;SDS011;61999;51.514;14.614;2022-10-31T01:54:08;13.83;;;10.53;;
15878;SDS011;61999;51.514;14.614;2022-10-31T01:56:42;14.27;;;10.23;;
15878;SDS011;61999;51.514;14.614;2022-10-31T01:59:17;12.60;;;9.87;;
15878;SDS011;61999;51.514;14.614;2022-10-31T02:01:49;11.73;;;9.47;;
15878;SDS011;61999;51.514;14.614;2022-10-31T02:04:18;11.50;;;10.10;;
15878;SDS011;61999;51.514;14.614;2022-10-31T02:06:51;12.37;;;10.50;;
15878;SDS011;61999;51.514;14.614;2022-10-31T02:09:26;12.07;;;9.07;;
15878;SDS011;61999;51.514;14.614;2022-10-31T02:11:58;14.33;;;8.90;;
15878;SDS011;61999;51.514;14.614;2022-10-31T02:14:28;12.73;;;8.83;;
15878;SDS011;61999;51.514;14.614;2022-10-31T02:16:58;13.67;;;9.37;;
15878;SDS011;61999;51.514;14.614;2022-10-31T02:19:28;10.93;;;8.77;;
15878;SDS011;61999;51.514;14.614;2022-10-31T02:22:05;12.17;;;8.87;;
15878;SDS011;61999;51.514;14.614;2022-10-31T02:24:46;11.27;;;8.50;;
15878;SDS011;61999;51.514;14.614;2022-10-31T02:31:04;15.33;;;9.73;;
15878;SDS011;61999;51.514;14.614;2022-10-31T02:33:52;12.53;;;9.23;;
15878;SDS011;61999;51.514;14.614;2022-10-31T02:36:25;11.00;;;8.60;;
15878;SDS011;61999;51.514;14.614;2022-10-31T02:39:06;12.37;;;8.57;;
15878;SDS011;61999;51.514;14.614;2022-10-31T02:41:44;9.37;;;7.53;;
15878;SDS011;61999;51.514;14.614;2022-10-31T02:44:21;11.77;;;7.60;;
15878;SDS011;61999;51.514;14.614;2022-10-31T02:47:01;8.50;;;7.30;;
15878;SDS011;61999;51.514;14.614;2022-10-31T02:49:34;12.27;;;7.77;;
15878;SDS011;61999;51.514;14.614;2022-10-31T02:52:16;10.83;;;9.20;;
15878;SDS011;61999;51.514;14.614;2022-10-31T02:54:45;8.47;;;7.53;;
15878;SDS011;61999;51.514;14.614;2022-10-31T02:57:15;9.37;;;8.07;;
15878;SDS011;61999;51.514;14.614;2022-10-31T02:59:50;7.77;;;6.97;;
15878;SDS011;61999;51.514;14.614;2022-10-31T03:02:27;11.73;;;7.77;;
15878;SDS011;61999;51.514;14.614;2022-10-31T03:05:24;10.70;;;8.43;;
15878;SDS011;61999;51.514;14.614;2022-10-31T03:08:17;10.23;;;8.33;;
15878;SDS011;61999;51.514;14.614;2022-10-31T03:10:53;12.60;;;8.27;;
15878;SDS011;61999;51.514;14.614;2022-10-31T03:13:27;12.40;;;8.90;;
15878;SDS011;61999;51.514;14.614;2022-10-31T03:16:07;11.57;;;9.10;;
15878;SDS011;61999;51.514;14.614;2022-10-31T03:18:44;11.43;;;8.33;;
15878;SDS011;61999;51.514;14.614;2022-10-31T03:21:20;13.30;;;8.50;;
15878;SDS011;61999;51.514;14.614;2022-10-31T03:23:54;14.47;;;9.20;;
15878;SDS011;61999;51.514;14.614;2022-10-31T03:26:24;8.40;;;7.27;;
15878;SDS011;61999;51.514;14.614;2022-10-31T03:28:53;8.67;;;7.10;;
15878;SDS011;61999;51.514;14.614;2022-10-31T03:31:28;8.43;;;7.07;;
15878;SDS011;61999;51.514;14.614;2022-10-31T03:34:04;11.17;;;7.70;;
15878;SDS011;61999;51.514;14.614;2022-10-31T03:36:35;11.20;;;7.23;;
15878;SDS011;61999;51.514;14.614;2022-10-31T03:39:07;8.77;;;6.83;;
15878;SDS011;61999;51.514;14.614;2022-10-31T03:41:41;10.27;;;7.00;;
15878;SDS011;61999;51.514;14.614;2022-10-31T03:44:14;10.10;;;7.37;;
15878;SDS011;61999;51.514;14.614;2022-10-31T03:46:48;8.93;;;7.03;;
15878;SDS011;61999;51.514;14.614;2022-10-31T03:49:18;11.20;;;7.30;;
15878;SDS011;61999;51.514;14.614;2022-10-31T03:51:47;10.77;;;6.90;;
15878;SDS011;61999;51.514;14.614;2022-10-31T03:54:25;10.80;;;6.60;;
15878;SDS011;61999;51.514;14.614;2022-10-31T03:57:02;8.37;;;6.97;;
15878;SDS011;61999;51.514;14.614;2022-10-31T03:59:39;7.33;;;6.50;;
15878;SDS011;61999;51.514;14.614;2022-10-31T04:02:13;9.97;;;6.60;;
15878;SDS011;61999;51.514;14.614;2022-10-31T04:04:46;8.50;;;6.83;;
15878;SDS011;61999;51.514;14.614;2022-10-31T04:07:17;7.93;;;7.07;;
15878;SDS011;61999;51.514;14.614;2022-10-31T04:09:50;9.67;;;7.10;;
15878;SDS011;61999;51.514;14.614;2022-10-31T04:12:20;9.80;;;6.50;;
15878;SDS011;61999;51.514;14.614;2022-10-31T04:14:51;11.10;;;6.63;;
15878;SDS011;61999;51.514;14.614;2022-10-31T04:17:22;8.37;;;6.70;;
15878;SDS011;61999;51.514;14.614;2022-10-31T04:19:59;10.47;;;7.33;;
15878;SDS011;61999;51.514;14.614;2022-10-31T04:22:28;7.73;;;6.30;;
15878;SDS011;61999;51.514;14.614;2022-10-31T04:24:56;6.53;;;5.80;;
15878;SDS011;61999;51.514;14.614;2022-10-31T04:27:23;8.10;;;5.90;;
15878;SDS011;61999;51.514;14.614;2022-10-31T04:29:52;6.73;;;5.77;;
15878;SDS011;61999;51.514;14.614;2022-10-31T04:32:20;7.17;;;5.87;;
15878;SDS011;61999;51.514;14.614;2022-10-31T04:34:48;7.80;;;6.30;;
15878;SDS011;61999;51.514;14.614;2022-10-31T04:37:17;8.20;;;6.57;;
15878;SDS011;61999;51.514;14.614;2022-10-31T04:39:45;7.47;;;6.73;;
15878;SDS011;61999;51.514;14.614;2022-10-31T04:42:13;10.53;;;6.70;;
15878;SDS011;61999;51.514;14.614;2022-10-31T04:44:41;8.67;;;6.87;;
15878;SDS011;61999;51.514;14.614;2022-10-31T04:47:09;8.77;;;6.07;;
15878;SDS011;61999;51.514;14.614;2022-10-31T04:49:37;7.83;;;5.63;;
15878;SDS011;61999;51.514;14.614;2022-10-31T04:52:05;8.10;;;5.53;;
15878;SDS011;61999;51.514;14.614;2022-10-31T04:54:35;7.77;;;5.73;;
15878;SDS011;61999;51.514;14.614;2022-10-31T04:57:03;9.90;;;6.30;;
15878;SDS011;61999;51.514;14.614;2022-10-31T04:59:31;6.83;;;5.67;;
15878;SDS011;61999;51.514;14.614;2022-10-31T05:01:59;8.30;;;6.50;;
15878;SDS011;61999;51.514;14.614;2022-10-31T05:04:27;7.33;;;5.57;;
15878;SDS011;61999;51.514;14.614;2022-10-31T05:06:55;11.20;;;5.87;;
15878;SDS011;61999;51.514;14.614;2022-10-31T05:09:22;7.30;;;5.13;;
15878;SDS011;61999;51.514;14.614;2022-10-31T05:11:52;5.27;;;4.63;;
15878;SDS011;61999;51.514;14.614;2022-10-31T05:14:19;7.07;;;5.67;;
15878;SDS011;61999;51.514;14.614;2022-10-31T05:16:48;6.70;;;5.57;;
15878;SDS011;61999;51.514;14.614;2022-10-31T05:19:16;6.93;;;5.70;;
15878;SDS011;61999;51.514;14.614;2022-10-31T05:21:43;6.83;;;5.77;;
15878;SDS011;61999;51.514;14.614;2022-10-31T05:24:11;7.50;;;6.00;;
15878;SDS011;61999;51.514;14.614;2022-10-31T05:26:39;6.50;;;5.77;;
15878;SDS011;61999;51.514;14.614;2022-10-31T05:29:08;6.73;;;5.40;;
15878;SDS011;61999;51.514;14.614;2022-10-31T05:31:36;7.07;;;5.53;;
15878;SDS011;61999;51.514;14.614;2022-10-31T05:34:04;6.73;;;5.57;;
15878;SDS011;61999;51.514;14.614;2022-10-31T05:36:32;10.17;;;6.17;;
15878;SDS011;61999;51.514;14.614;2022-10-31T05:39:00;5.83;;;5.23;;
15878;SDS011;61999;51.514;14.614;2022-10-31T05:41:28;8.80;;;6.07;;
15878;SDS011;61999;51.514;14.614;2022-10-31T05:43:56;9.93;;;5.60;;
15878;SDS011;61999;51.514;14.614;2022-10-31T05:46:25;6.47;;;5.67;;
15878;SDS011;61999;51.514;14.614;2022-10-31T05:48:54;7.23;;;5.73;;
15878;SDS011;61999;51.514;14.614;2022-10-31T05:51:23;7.97;;;5.43;;
15878;SDS011;61999;51.514;14.614;2022-10-31T05:53:51;5.63;;;4.73;;
15878;SDS011;61999;51.514;14.614;2022-10-31T05:56:19;7.03;;;5.13;;
15878;SDS011;61999;51.514;14.614;2022-10-31T05:58:47;8.17;;;5.50;;
15878;SDS011;61999;51.514;14.614;2022-10-31T06:01:15;8.23;;;6.23;;
15878;SDS011;61999;51.514;14.614;2022-10-31T06:03:44;10.20;;;5.93;;
15878;SDS011;61999;51.514;14.614;2022-10-31T06:06:12;7.77;;;5.20;;
15878;SDS011;61999;51.514;14.614;2022-10-31T06:08:40;6.17;;;5.30;;
15878;SDS011;61999;51.514;14.614;2022-10-31T06:11:08;8.13;;;5.93;;
15878;SDS011;61999;51.514;14.614;2022-10-31T06:13:36;6.97;;;5.50;;
15878;SDS011;61999;51.514;14.614;2022-10-31T06:16:04;8.33;;;5.37;;
15878;SDS011;61999;51.514;14.614;2022-10-31T06:18:32;6.23;;;5.33;;
15878;SDS011;61999;51.514;14.614;2022-10-31T06:21:01;6.40;;;4.90;;
15878;SDS011;61999;51.514;14.614;2022-10-31T06:23:30;5.60;;;5.00;;
15878;SDS011;61999;51.514;14.614;2022-10-31T06:25:58;5.83;;;5.00;;
15878;SDS011;61999;51.514;14.614;2022-10-31T06:28:25;6.13;;;4.37;;
15878;SDS011;61999;51.514;14.614;2022-10-31T06:30:53;8.00;;;5.60;;
15878;SDS011;61999;51.514;14.614;2022-10-31T06:33:21;5.83;;;4.80;;
15878;SDS011;61999;51.514;14.614;2022-10-31T06:35:49;7.07;;;5.70;;
15878;SDS011;61999;51.514;14.614;2022-10-31T06:38:18;7.40;;;4.53;;
15878;SDS011;61999;51.514;14.614;2022-10-31T06:40:46;7.00;;;4.80;;
15878;SDS011;61999;51.514;14.614;2022-10-31T06:43:14;8.87;;;6.03;;
15878;SDS011;61999;51.514;14.614;2022-10-31T06:45:42;7.23;;;5.57;;
15878;SDS011;61999;51.514;14.614;2022-10-31T06:48:10;5.13;;;4.40;;
15878;SDS011;61999;51.514;14.614;2022-10-31T06:50:42;7.00;;;5.13;;
15878;SDS011;61999;51.514;14.614;2022-10-31T06:53:10;5.47;;;4.97;;
15878;SDS011;61999;51.514;14.614;2022-10-31T06:55:40;6.07;;;4.60;;
15878;SDS011;61999;51.514;14.614;2022-10-31T06:58:09;9.57;;;5.90;;
15878;SDS011;61999;51.514;14.614;2022-10-31T07:00:38;8.80;;;5.73;;
15878;SDS011;61999;51.514;14.614;2022-10-31T07:03:08;7.63;;;5.50;;
15878;SDS011;61999;51.514;14.614;2022-10-31T07:05:38;8.50;;;5.07;;
15878;SDS011;61999;51.514;14.614;2022-10-31T07:08:09;7.30;;;5.90;;
15878;SDS011;61999;51.514;14.614;2022-10-31T07:10:41;7.77;;;5.43;;
15878;SDS011;61999;51.514;14.614;2022-10-31T07:13:17;10.67;;;6.40;;
15878;SDS011;61999;51.514;14.614;2022-10-31T07:15:48;9.30;;;6.23;;
15878;SDS011;61999;51.514;14.614;2022-10-31T07:18:16;9.27;;;6.20;;
15878;SDS011;61999;51.514;14.614;2022-10-31T07:20:44;11.60;;;6.47;;
15878;SDS011;61999;51.514;14.614;2022-10-31T07:23:12;7.20;;;5.90;;
15878;SDS011;61999;51.514;14.614;2022-10-31T07:25:41;10.13;;;7.60;;
15878;SDS011;61999;51.514;14.614;2022-10-31T07:28:09;12.70;;;8.40;;
15878;SDS011;61999;51.514;14.614;2022-10-31T07:30:38;12.23;;;8.13;;
15878;SDS011;61999;51.514;14.614;2022-10-31T07:33:06;12.03;;;8.13;;
15878;SDS011;61999;51.514;14.614;2022-10-31T07:35:35;12.20;;;7.13;;
15878;SDS011;61999;51.514;14.614;2022-10-31T07:38:06;11.07;;;7.00;;
15878;SDS011;61999;51.514;14.614;2022-10-31T07:40:36;12.80;;;7.63;;
15878;SDS011;61999;51.514;14.614;2022-10-31T07:43:05;11.93;;;6.67;;
15878;SDS011;61999;51.514;14.614;2022-10-31T07:45:34;11.57;;;7.83;;
15878;SDS011;61999;51.514;14.614;2022-10-31T07:48:03;8.80;;;6.30;;
15878;SDS011;61999;51.514;14.614;2022-10-31T07:50:32;8.07;;;6.27;;
15878;SDS011;61999;51.514;14.614;2022-10-31T07:53:01;7.90;;;6.37;;
15878;SDS011;61999;51.514;14.614;2022-10-31T07:55:31;8.80;;;5.53;;
15878;SDS011;61999;51.514;14.614;2022-10-31T07:58:01;6.83;;;5.33;;
15878;SDS011;61999;51.514;14.614;2022-10-31T08:00:33;10.50;;;4.90;;
15878;SDS011;61999;51.514;14.614;2022-10-31T08:03:04;8.57;;;6.30;;
15878;SDS011;61999;51.514;14.614;2022-10-31T08:05:34;8.20;;;5.93;;
15878;SDS011;61999;51.514;14.614;2022-10-31T08:08:03;9.33;;;5.90;;
15878;SDS011;61999;51.514;14.614;2022-10-31T08:10:33;8.40;;;6.03;;
15878;SDS011;61999;51.514;14.614;2022-10-31T08:13:02;8.40;;;5.73;;
15878;SDS011;61999;51.514;14.614;2022-10-31T08:15:34;7.97;;;5.67;;
15878;SDS011;61999;51.514;14.614;2022-10-31T08:18:05;9.03;;;5.10;;
15878;SDS011;61999;51.514;14.614;2022-10-31T08:20:38;6.97;;;4.90;;
15878;SDS011;61999;51.514;14.614;2022-10-31T08:23:07;6.90;;;5.20;;
15878;SDS011;61999;51.514;14.614;2022-10-31T08:25:37;5.70;;;4.97;;
15878;SDS011;61999;51.514;14.614;2022-10-31T08:28:06;8.20;;;5.23;;
15878;SDS011;61999;51.514;14.614;2022-10-31T08:30:37;7.73;;;5.50;;
15878;SDS011;61999;51.514;14.614;2022-10-31T08:33:08;10.43;;;5.20;;
15878;SDS011;61999;51.514;14.614;2022-10-31T08:35:39;7.93;;;5.60;;
15878;SDS011;61999;51.514;14.614;2022-10-31T08:38:08;9.57;;;5.83;;
15878;SDS011;61999;51.514;14.614;2022-10-31T08:40:37;7.50;;;5.37;;
15878;SDS011;61999;51.514;14.614;2022-10-31T08:43:06;8.10;;;5.23;;
15878;SDS011;61999;51.514;14.614;2022-10-31T08:45:40;7.90;;;5.07;;
15878;SDS011;61999;51.514;14.614;2022-10-31T08:48:10;7.73;;;5.70;;
15878;SDS011;61999;51.514;14.614;2022-10-31T08:50:40;7.10;;;5.40;;
15878;SDS011;61999;51.514;14.614;2022-10-31T08:53:10;6.13;;;4.43;;
15878;SDS011;61999;51.514;14.614;2022-10-31T08:55:41;7.43;;;5.03;;
15878;SDS011;61999;51.514;14.614;2022-10-31T08:58:11;7.90;;;5.07;;
15878;SDS011;61999;51.514;14.614;2022-10-31T09:00:44;7.77;;;5.20;;
15878;SDS011;61999;51.514;14.614;2022-10-31T09:03:17;6.77;;;5.37;;
15878;SDS011;61999;51.514;14.614;2022-10-31T09:05:48;7.40;;;5.37;;
15878;SDS011;61999;51.514;14.614;2022-10-31T09:08:16;8.73;;;4.70;;
15878;SDS011;61999;51.514;14.614;2022-10-31T09:10:44;8.27;;;5.20;;
15878;SDS011;61999;51.514;14.614;2022-10-31T09:13:13;8.07;;;5.03;;
15878;SDS011;61999;51.514;14.614;2022-10-31T09:15:45;8.73;;;5.07;;
15878;SDS011;61999;51.514;14.614;2022-10-31T09:18:16;6.40;;;5.23;;
15878;SDS011;61999;51.514;14.614;2022-10-31T09:20:46;7.43;;;5.63;;
15878;SDS011;61999;51.514;14.614;2022-10-31T09:23:16;9.37;;;5.23;;
15878;SDS011;61999;51.514;14.614;2022-10-31T09:25:46;7.80;;;5.33;;
15878;SDS011;61999;51.514;14.614;2022-10-31T09:28:19;9.53;;;5.87;;
15878;SDS011;61999;51.514;14.614;2022-10-31T09:30:52;9.30;;;5.17;;
15878;SDS011;61999;51.514;14.614;2022-10-31T09:33:21;5.30;;;4.70;;
15878;SDS011;61999;51.514;14.614;2022-10-31T09:35:57;12.30;;;5.47;;
15878;SDS011;61999;51.514;14.614;2022-10-31T09:38:33;6.73;;;5.23;;
15878;SDS011;61999;51.514;14.614;2022-10-31T09:41:04;10.53;;;5.70;;
15878;SDS011;61999;51.514;14.614;2022-10-31T09:43:48;7.57;;;5.10;;
15878;SDS011;61999;51.514;14.614;2022-10-31T09:46:31;8.17;;;6.20;;
15878;SDS011;61999;51.514;14.614;2022-10-31T09:49:21;8.00;;;5.13;;
15878;SDS011;61999;51.514;14.614;2022-10-31T09:52:05;8.17;;;5.60;;
15878;SDS011;61999;51.514;14.614;2022-10-31T09:54:44;7.27;;;5.10;;
15878;SDS011;61999;51.514;14.614;2022-10-31T09:57:22;12.50;;;6.17;;
15878;SDS011;61999;51.514;14.614;2022-10-31T09:59:55;9.67;;;5.57;;
15878;SDS011;61999;51.514;14.614;2022-10-31T10:02:29;9.10;;;5.57;;
15878;SDS011;61999;51.514;14.614;2022-10-31T10:05:05;7.60;;;5.50;;
15878;SDS011;61999;51.514;14.614;2022-10-31T10:07:40;5.97;;;5.03;;
15878;SDS011;61999;51.514;14.614;2022-10-31T10:10:31;11.73;;;4.77;;
15878;SDS011;61999;51.514;14.614;2022-10-31T10:13:20;7.37;;;4.97;;
15878;SDS011;61999;51.514;14.614;2022-10-31T10:16:22;6.47;;;4.93;;
15878;SDS011;61999;51.514;14.614;2022-10-31T10:19:12;9.77;;;5.50;;
15878;SDS011;61999;51.514;14.614;2022-10-31T10:21:57;6.43;;;4.77;;
15878;SDS011;61999;51.514;14.614;2022-10-31T10:24:42;7.27;;;4.73;;
15878;SDS011;61999;51.514;14.614;2022-10-31T10:27:27;10.67;;;6.10;;
15878;SDS011;61999;51.514;14.614;2022-10-31T10:30:12;8.23;;;5.40;;
15878;SDS011;61999;51.514;14.614;2022-10-31T10:32:45;6.27;;;4.67;;
15878;SDS011;61999;51.514;14.614;2022-10-31T10:35:21;7.37;;;4.43;;
15878;SDS011;61999;51.514;14.614;2022-10-31T10:37:56;8.93;;;5.00;;
15878;SDS011;61999;51.514;14.614;2022-10-31T10:40:31;7.03;;;5.10;;
15878;SDS011;61999;51.514;14.614;2022-10-31T10:43:01;7.57;;;6.03;;
15878;SDS011;61999;51.514;14.614;2022-10-31T10:45:50;6.47;;;5.20;;
15878;SDS011;61999;51.514;14.614;2022-10-31T10:49:05;5.93;;;5.00;;
15878;SDS011;61999;51.514;14.614;2022-10-31T10:51:45;7.67;;;4.80;;
15878;SDS011;61999;51.514;14.614;2022-10-31T10:54:38;8.57;;;5.97;;
15878;SDS011;61999;51.514;14.614;2022-10-31T10:57:21;5.73;;;4.53;;
15878;SDS011;61999;51.514;14.614;2022-10-31T11:00:14;11.70;;;5.10;;
15878;SDS011;61999;51.514;14.614;2022-10-31T11:02:47;9.37;;;4.57;;
15878;SDS011;61999;51.514;14.614;2022-10-31T11:05:19;8.73;;;5.20;;
15878;SDS011;61999;51.514;14.614;2022-10-31T11:07:58;6.93;;;5.10;;
15878;SDS011;61999;51.514;14.614;2022-10-31T11:10:27;7.57;;;4.77;;
15878;SDS011;61999;51.514;14.614;2022-10-31T11:15:52;7.40;;;5.30;;
15878;SDS011;61999;51.514;14.614;2022-10-31T11:18:27;8.63;;;4.83;;
15878;SDS011;61999;51.514;14.614;2022-10-31T11:21:02;8.97;;;5.83;;
15878;SDS011;61999;51.514;14.614;2022-10-31T11:23:33;7.50;;;4.87;;
15878;SDS011;61999;51.514;14.614;2022-10-31T11:26:05;7.20;;;5.20;;
15878;SDS011;61999;51.514;14.614;2022-10-31T11:28:55;6.23;;;4.87;;
15878;SDS011;61999;51.514;14.614;2022-10-31T11:31:25;5.63;;;4.70;;
15878;SDS011;61999;51.514;14.614;2022-10-31T11:34:00;7.70;;;5.50;;
15878;SDS011;61999;51.514;14.614;2022-10-31T11:36:31;7.60;;;5.50;;
15878;SDS011;61999;51.514;14.614;2022-10-31T11:39:05;5.43;;;4.47;;
15878;SDS011;61999;51.514;14.614;2022-10-31T11:41:45;8.90;;;5.00;;
15878;SDS011;61999;51.514;14.614;2022-10-31T11:44:16;6.53;;;4.93;;
15878;SDS011;61999;51.514;14.614;2022-10-31T11:46:47;8.13;;;4.80;;
15878;SDS011;61999;51.514;14.614;2022-10-31T11:49:19;7.27;;;4.60;;
15878;SDS011;61999;51.514;14.614;2022-10-31T11:51:56;6.13;;;4.67;;
15878;SDS011;61999;51.514;14.614;2022-10-31T11:54:31;7.47;;;5.03;;
15878;SDS011;61999;51.514;14.614;2022-10-31T11:57:21;9.27;;;4.97;;
15878;SDS011;61999;51.514;14.614;2022-10-31T11:59:51;8.10;;;4.83;;
15878;SDS011;61999;51.514;14.614;2022-10-31T12:02:22;7.13;;;4.57;;
15878;SDS011;61999;51.514;14.614;2022-10-31T12:04:53;5.03;;;4.37;;
15878;SDS011;61999;51.514;14.614;2022-10-31T12:07:32;8.87;;;5.20;;
15878;SDS011;61999;51.514;14.614;2022-10-31T12:10:01;8.73;;;5.20;;
15878;SDS011;61999;51.514;14.614;2022-10-31T12:12:44;7.90;;;4.93;;
15878;SDS011;61999;51.514;14.614;2022-10-31T12:15:29;5.40;;;4.27;;
15878;SDS011;61999;51.514;14.614;2022-10-31T12:18:17;5.27;;;4.63;;
15878;SDS011;61999;51.514;14.614;2022-10-31T12:21:15;7.43;;;5.13;;
15878;SDS011;61999;51.514;14.614;2022-10-31T12:24:07;8.90;;;5.30;;
15878;SDS011;61999;51.514;14.614;2022-10-31T12:26:51;11.33;;;5.83;;
15878;SDS011;61999;51.514;14.614;2022-10-31T12:29:34;5.83;;;4.87;;
15878;SDS011;61999;51.514;14.614;2022-10-31T12:32:26;7.37;;;4.53;;
15878;SDS011;61999;51.514;14.614;2022-10-31T12:35:15;5.37;;;4.37;;
15878;SDS011;61999;51.514;14.614;2022-10-31T12:41:09;7.72;;;4.90;;
15878;SDS011;61999;51.514;14.614;2022-10-31T12:43:55;7.63;;;5.05;;
15878;SDS011;61999;51.514;14.614;2022-10-31T12:46:41;6.53;;;4.77;;
15878;SDS011;61999;51.514;14.614;2022-10-31T12:49:31;7.43;;;5.25;;
15878;SDS011;61999;51.514;14.614;2022-10-31T12:52:19;5.88;;;5.10;;
15878;SDS011;61999;51.514;14.614;2022-10-31T12:55:09;8.33;;;4.90;;
15878;SDS011;61999;51.514;14.614;2022-10-31T12:57:57;7.93;;;5.20;;
15878;SDS011;61999;51.514;14.614;2022-10-31T13:00:37;8.27;;;4.82;;
15878;SDS011;61999;51.514;14.614;2022-10-31T13:03:17;7.28;;;5.13;;
15878;SDS011;61999;51.514;14.614;2022-10-31T13:05:54;6.57;;;4.53;;
15878;SDS011;61999;51.514;14.614;2022-10-31T13:08:30;5.33;;;3.90;;
15878;SDS011;61999;51.514;14.614;2022-10-31T13:11:08;7.38;;;4.35;;
15878;SDS011;61999;51.514;14.614;2022-10-31T13:13:42;5.05;;;3.90;;
15878;SDS011;61999;51.514;14.614;2022-10-31T13:16:27;6.80;;;4.18;;
15878;SDS011;61999;51.514;14.614;2022-10-31T13:19:01;8.67;;;4.83;;
15878;SDS011;61999;51.514;14.614;2022-10-31T13:21:39;6.72;;;4.53;;
15878;SDS011;61999;51.514;14.614;2022-10-31T13:24:16;5.85;;;4.47;;
15878;SDS011;61999;51.514;14.614;2022-10-31T13:26:52;6.13;;;4.15;;
15878;SDS011;61999;51.514;14.614;2022-10-31T13:29:25;8.70;;;4.78;;
15878;SDS011;61999;51.514;14.614;2022-10-31T13:32:03;5.85;;;4.30;;
15878;SDS011;61999;51.514;14.614;2022-10-31T13:34:34;5.45;;;4.18;;
15878;SDS011;61999;51.514;14.614;2022-10-31T13:37:10;6.88;;;5.20;;
15878;SDS011;61999;51.514;14.614;2022-10-31T13:39:50;6.03;;;4.13;;
15878;SDS011;61999;51.514;14.614;2022-10-31T13:42:39;6.47;;;4.25;;
15878;SDS011;61999;51.514;14.614;2022-10-31T13:45:22;5.03;;;4.05;;
15878;SDS011;61999;51.514;14.614;2022-10-31T13:47:56;6.32;;;4.72;;
15878;SDS011;61999;51.514;14.614;2022-10-31T13:50:27;8.85;;;5.20;;
15878;SDS011;61999;51.514;14.614;2022-10-31T13:53:03;9.15;;;5.57;;
15878;SDS011;61999;51.514;14.614;2022-10-31T13:55:41;9.03;;;4.67;;
15878;SDS011;61999;51.514;14.614;2022-10-31T13:58:19;7.10;;;4.97;;
15878;SDS011;61999;51.514;14.614;2022-10-31T14:01:12;6.47;;;4.30;;
15878;SDS011;61999;51.514;14.614;2022-10-31T14:03:47;7.50;;;4.60;;
15878;SDS011;61999;51.514;14.614;2022-10-31T14:06:36;5.73;;;4.33;;
15878;SDS011;61999;51.514;14.614;2022-10-31T14:09:17;6.47;;;4.93;;
15878;SDS011;61999;51.514;14.614;2022-10-31T14:11:51;6.17;;;4.27;;
15878;SDS011;61999;51.514;14.614;2022-10-31T14:14:20;6.40;;;4.17;;
15878;SDS011;61999;51.514;14.614;2022-10-31T14:16:54;8.83;;;5.37;;
15878;SDS011;61999;51.514;14.614;2022-10-31T14:19:26;9.07;;;5.10;;
15878;SDS011;61999;51.514;14.614;2022-10-31T14:21:54;6.67;;;5.37;;
15878;SDS011;61999;51.514;14.614;2022-10-31T14:24:35;6.53;;;4.20;;
15878;SDS011;61999;51.514;14.614;2022-10-31T14:27:29;5.00;;;4.50;;
15878;SDS011;61999;51.514;14.614;2022-10-31T14:30:13;5.70;;;3.60;;
15878;SDS011;61999;51.514;14.614;2022-10-31T14:32:49;7.40;;;4.10;;
15878;SDS011;61999;51.514;14.614;2022-10-31T14:35:23;6.27;;;4.27;;
15878;SDS011;61999;51.514;14.614;2022-10-31T14:41:25;6.93;;;4.10;;
15878;SDS011;61999;51.514;14.614;2022-10-31T14:44:16;6.03;;;4.00;;
15878;SDS011;61999;51.514;14.614;2022-10-31T14:47:20;7.63;;;4.57;;
15878;SDS011;61999;51.514;14.614;2022-10-31T14:50:04;5.93;;;4.03;;
15878;SDS011;61999;51.514;14.614;2022-10-31T14:53:00;6.17;;;4.33;;
15878;SDS011;61999;51.514;14.614;2022-10-31T14:55:41;5.87;;;4.07;;
15878;SDS011;61999;51.514;14.614;2022-10-31T14:58:16;7.00;;;4.30;;
15878;SDS011;61999;51.514;14.614;2022-10-31T15:00:49;6.30;;;4.00;;
15878;SDS011;61999;51.514;14.614;2022-10-31T15:03:24;6.80;;;4.10;;
15878;SDS011;61999;51.514;14.614;2022-10-31T15:06:00;7.27;;;3.97;;
15878;SDS011;61999;51.514;14.614;2022-10-31T15:08:35;5.73;;;4.47;;
15878;SDS011;61999;51.514;14.614;2022-10-31T15:11:17;6.23;;;4.57;;
15878;SDS011;61999;51.514;14.614;2022-10-31T15:13:55;8.63;;;4.23;;
15878;SDS011;61999;51.514;14.614;2022-10-31T15:16:27;7.33;;;4.10;;
15878;SDS011;61999;51.514;14.614;2022-10-31T15:19:09;4.77;;;4.33;;
15878;SDS011;61999;51.514;14.614;2022-10-31T15:21:47;8.77;;;4.83;;